Time;durP1;ratioP1;P1;durP2;ratioP2;P2;SDS_P1;SDS_P2;PMS_P1;PMS_P2;Temp;Humidity;BMP_temperature;BMP_pressure;BME280_temperature;BME280_humidity;BME280_pressure;Samples;Min_cycle;Max_cycle;Signal;HPM_P1;HPM_P2
2022/07/05 00:01:23;;;;;;;3.40;3.10;;;16.30;94.70;;;;;;5054685;28;20959;-79
2022/07/05 00:03:51;;;;;;;5.10;3.73;;;16.30;94.80;;;;;;5056096;28;20784;-79
2022/07/05 00:06:21;;;;;;;3.97;3.57;;;16.30;94.80;;;;;;5054077;28;20546;-79
2022/07/05 00:08:49;;;;;;;4.30;3.50;;;16.20;94.80;;;;;;5054826;28;20438;-80
2022/07/05 00:11:18;;;;;;;4.20;3.80;;;16.20;94.80;;;;;;5056084;28;20955;-81
2022/07/05 00:13:46;;;;;;;4.47;3.60;;;16.20;94.80;;;;;;5054807;28;20832;-79
2022/07/05 00:16:14;;;;;;;4.13;3.70;;;16.20;94.90;;;;;;5056716;28;20517;-80
2022/07/05 00:18:43;;;;;;;8.90;3.83;;;16.20;94.90;;;;;;5054142;28;20450;-79
2022/07/05 00:21:12;;;;;;;5.57;3.60;;;16.20;95.00;;;;;;5054596;28;20453;-80
2022/07/05 00:23:41;;;;;;;5.27;3.60;;;16.10;95.00;;;;;;5055298;28;20450;-80
2022/07/05 00:26:10;;;;;;;3.90;3.60;;;16.10;95.10;;;;;;5056096;28;20817;-79
2022/07/05 00:28:38;;;;;;;7.40;3.50;;;16.00;95.20;;;;;;5056433;28;20493;-79
2022/07/05 00:31:06;;;;;;;6.57;3.83;;;16.00;95.30;;;;;;5054489;28;20458;-80
2022/07/05 00:33:35;;;;;;;4.50;4.10;;;16.00;95.30;;;;;;5054442;28;20457;-79
2022/07/05 00:36:04;;;;;;;4.50;4.10;;;16.00;95.60;;;;;;5054374;28;20442;-81
2022/07/05 00:38:32;;;;;;;4.27;3.83;;;16.00;95.50;;;;;;5054157;28;20421;-79
2022/07/05 00:41:01;;;;;;;4.90;4.40;;;15.90;95.50;;;;;;5054536;28;20462;-80
2022/07/05 00:43:30;;;;;;;4.20;3.70;;;15.90;95.60;;;;;;5054157;28;20507;-81
2022/07/05 00:45:58;;;;;;;4.33;3.87;;;15.80;95.60;;;;;;5056078;28;20517;-81
2022/07/05 00:48:26;;;;;;;7.17;4.00;;;15.80;95.70;;;;;;5054164;28;20547;-78
2022/07/05 00:50:55;;;;;;;5.00;4.50;;;15.80;95.70;;;;;;5054076;28;20433;-79
2022/07/05 00:53:23;;;;;;;4.50;4.10;;;15.80;95.80;;;;;;5059904;28;20450;-79
2022/07/05 00:55:51;;;;;;;4.47;4.10;;;15.80;95.90;;;;;;5070810;28;20447;-79
2022/07/05 00:58:21;;;;;;;4.80;4.40;;;15.80;95.90;;;;;;5071095;28;20437;-80
2022/07/05 01:00:49;;;;;;;4.97;3.90;;;15.80;96.00;;;;;;5068883;28;20474;-79
2022/07/05 01:03:18;;;;;;;4.90;4.20;;;15.70;96.00;;;;;;5071547;28;20408;-80
2022/07/05 01:05:46;;;;;;;4.40;4.00;;;15.70;96.00;;;;;;5070631;28;20412;-79
2022/07/05 01:08:15;;;;;;;5.00;3.87;;;15.70;96.00;;;;;;5070543;28;20489;-78
2022/07/05 01:10:43;;;;;;;4.70;3.73;;;15.60;96.10;;;;;;5070841;28;20462;-80
2022/07/05 01:13:12;;;;;;;4.40;4.00;;;15.60;96.10;;;;;;5065296;28;21016;-81
2022/07/05 01:15:42;;;;;;;4.00;3.70;;;15.60;96.10;;;;;;5061599;28;20428;-80
2022/07/05 01:18:11;;;;;;;4.00;3.67;;;15.60;96.20;;;;;;5060787;28;20421;-80
2022/07/05 01:20:42;;;;;;;4.50;4.10;;;15.50;96.10;;;;;;5058741;28;20458;-81
2022/07/05 01:23:12;;;;;;;5.30;4.07;;;15.50;96.20;;;;;;5057185;28;20436;-81
2022/07/05 01:25:41;;;;;;;4.47;3.73;;;15.50;96.20;;;;;;5055708;28;20464;-81
2022/07/05 01:28:10;;;;;;;4.60;4.20;;;15.50;96.20;;;;;;5055707;28;20444;-79
2022/07/05 01:30:41;;;;;;;4.97;4.03;;;15.40;96.30;;;;;;5054959;28;20466;-80
2022/07/05 01:33:10;;;;;;;6.60;4.10;;;15.40;96.30;;;;;;5056626;28;20488;-81
2022/07/05 01:35:38;;;;;;;6.10;4.10;;;15.30;96.40;;;;;;5054965;28;20443;-81
2022/07/05 01:38:07;;;;;;;4.60;4.20;;;15.30;96.40;;;;;;5053653;28;20811;-79
2022/07/05 01:40:37;;;;;;;4.77;4.37;;;15.30;96.50;;;;;;5057440;28;20436;-81
2022/07/05 01:43:05;;;;;;;4.23;3.83;;;15.20;96.50;;;;;;5056771;28;20420;-81
2022/07/05 01:45:42;;;;;;;4.60;4.20;;;15.20;96.60;;;;;;5057118;28;20452;-80
2022/07/05 01:48:14;;;;;;;4.73;4.03;;;15.20;96.60;;;;;;5056631;28;20887;-81
2022/07/05 01:50:46;;;;;;;4.20;3.80;;;15.10;96.60;;;;;;5058126;28;20454;-80
2022/07/05 01:53:19;;;;;;;4.03;3.67;;;15.10;96.70;;;;;;5056791;28;20467;-81
2022/07/05 01:55:49;;;;;;;4.40;4.00;;;15.10;96.70;;;;;;5058531;28;20435;-79
2022/07/05 01:58:18;;;;;;;5.57;4.40;;;15.10;96.80;;;;;;5056447;28;20445;-81
2022/07/05 02:00:48;;;;;;;4.97;4.57;;;15.00;96.80;;;;;;5056694;28;20881;-80
2022/07/05 02:03:17;;;;;;;5.23;4.37;;;15.00;96.80;;;;;;5056558;28;20428;-80
2022/07/05 02:06:08;;;;;;;4.47;3.83;;;14.90;96.80;;;;;;5056282;28;20430;-80
2022/07/05 02:08:36;;;;;;;4.30;4.00;;;14.90;96.90;;;;;;5056372;28;20441;-80
2022/07/05 02:11:11;;;;;;;5.87;5.13;;;14.90;97.00;;;;;;5056436;28;20419;-80
2022/07/05 02:13:40;;;;;;;5.10;4.60;;;14.90;97.00;;;;;;5056428;28;20424;-79
2022/07/05 02:16:09;;;;;;;4.90;4.50;;;14.80;97.00;;;;;;5056516;28;20456;-81
2022/07/05 02:18:38;;;;;;;6.70;5.07;;;14.80;97.10;;;;;;5057643;28;20425;-81
2022/07/05 02:21:06;;;;;;;5.60;5.07;;;14.70;97.20;;;;;;5058049;28;20463;-81
2022/07/05 02:23:35;;;;;;;6.20;5.13;;;14.70;97.20;;;;;;5057541;28;20567;-81
2022/07/05 02:26:06;;;;;;;5.63;5.13;;;14.70;97.30;;;;;;5058015;28;20497;-80
2022/07/05 02:28:39;;;;;;;7.50;5.93;;;14.70;97.40;;;;;;5057426;28;20841;-80
2022/07/05 02:31:09;;;;;;;6.00;5.37;;;14.60;97.40;;;;;;5057172;28;20442;-81
2022/07/05 02:33:37;;;;;;;6.40;5.80;;;14.60;97.40;;;;;;5057145;28;20446;-78
2022/07/05 02:36:10;;;;;;;6.73;6.13;;;14.60;97.80;;;;;;5056858;28;20421;-79
2022/07/05 02:38:39;;;;;;;6.60;6.10;;;14.60;97.60;;;;;;5056994;28;20439;-81
2022/07/05 02:41:10;;;;;;;7.00;5.97;;;14.50;97.60;;;;;;5058747;28;20431;-81
2022/07/05 02:43:42;;;;;;;7.10;6.50;;;14.50;97.70;;;;;;5059699;28;20477;-81
2022/07/05 02:46:11;;;;;;;20.73;6.77;;;14.50;97.80;;;;;;5059935;28;20459;-79
2022/07/05 02:48:40;;;;;;;6.53;5.93;;;14.50;97.90;;;;;;5058254;28;20472;-79
2022/07/05 02:51:09;;;;;;;6.40;5.80;;;14.40;98.00;;;;;;5056223;28;20473;-79
2022/07/05 02:53:39;;;;;;;8.20;6.50;;;14.40;98.10;;;;;;5058099;28;20432;-81
2022/07/05 02:56:09;;;;;;;8.47;6.10;;;14.40;98.20;;;;;;5058043;28;20430;-79
2022/07/05 02:58:38;;;;;;;7.07;6.30;;;14.40;98.20;;;;;;5057049;28;20471;-80
2022/07/05 03:01:09;;;;;;;8.30;5.80;;;14.30;98.30;;;;;;5057304;28;20990;-80
2022/07/05 03:03:39;;;;;;;7.20;6.50;;;14.40;98.40;;;;;;5057042;28;20424;-81
2022/07/05 03:06:09;;;;;;;6.93;6.20;;;14.40;98.40;;;;;;5056856;28;20884;-80
2022/07/05 03:08:37;;;;;;;7.20;6.50;;;14.30;98.40;;;;;;5056945;28;20474;-80
2022/07/05 03:11:06;;;;;;;6.97;6.30;;;14.30;98.50;;;;;;5057403;28;20449;-80
2022/07/05 03:13:36;;;;;;;8.03;5.83;;;14.30;98.50;;;;;;5056560;28;20956;-80
2022/07/05 03:16:05;;;;;;;6.07;5.60;;;14.30;98.60;;;;;;5056431;28;20472;-81
2022/07/05 03:18:35;;;;;;;7.57;6.93;;;14.30;98.60;;;;;;5056022;28;20420;-79
2022/07/05 03:21:06;;;;;;;7.67;6.47;;;14.30;98.70;;;;;;5056329;28;20442;-78
2022/07/05 03:23:36;;;;;;;6.50;5.70;;;14.20;98.70;;;;;;5055805;28;20503;-79
2022/07/05 03:26:04;;;;;;;6.40;5.90;;;14.30;98.80;;;;;;5055994;28;20421;-80
2022/07/05 03:28:33;;;;;;;7.80;7.00;;;14.20;98.80;;;;;;5056203;28;20691;-78
2022/07/05 03:31:02;;;;;;;6.30;5.80;;;14.20;98.90;;;;;;5056155;28;20498;-80
2022/07/05 03:33:38;;;;;;;7.37;6.67;;;14.20;99.00;;;;;;5055603;28;20940;-79
2022/07/05 03:36:10;;;;;;;7.30;6.70;;;14.20;99.00;;;;;;5056146;28;20500;-78
2022/07/05 03:38:40;;;;;;;7.33;6.63;;;14.20;99.10;;;;;;5055982;28;20437;-80
2022/07/05 03:41:08;;;;;;;7.23;6.53;;;14.20;99.10;;;;;;5055728;28;20971;-81
2022/07/05 03:43:37;;;;;;;7.07;6.37;;;14.20;99.20;;;;;;5055759;28;20428;-79
2022/07/05 03:46:07;;;;;;;7.20;6.60;;;14.10;99.20;;;;;;5055365;28;20473;-79
2022/07/05 03:48:38;;;;;;;7.90;7.20;;;14.10;99.30;;;;;;5055431;28;20504;-81
2022/07/05 03:51:10;;;;;;;9.50;8.60;;;14.10;99.30;;;;;;5055561;28;20430;-80
2022/07/05 03:53:39;;;;;;;7.77;7.00;;;14.10;99.30;;;;;;5055111;28;20497;-81
2022/07/05 03:56:09;;;;;;;7.60;5.90;;;14.10;99.30;;;;;;5056414;28;20425;-80
2022/07/05 03:58:41;;;;;;;5.80;5.30;;;14.10;99.40;;;;;;5056128;28;20425;-80
2022/07/05 04:01:09;;;;;;;6.63;6.03;;;14.10;99.40;;;;;;5057798;28;20768;-78
2022/07/05 04:03:40;;;;;;;6.27;5.70;;;14.10;99.50;;;;;;5056178;28;20550;-80
2022/07/05 04:06:12;;;;;;;11.70;6.30;;;14.10;99.60;;;;;;5054877;28;20867;-80
2022/07/05 04:08:41;;;;;;;5.23;4.83;;;14.10;99.60;;;;;;5054847;28;20538;-81
2022/07/05 04:11:12;;;;;;;6.50;6.00;;;14.10;99.60;;;;;;5054494;28;20442;-79
2022/07/05 04:13:43;;;;;;;6.40;5.90;;;14.10;99.70;;;;;;5054396;28;20472;-78
2022/07/05 04:16:13;;;;;;;6.00;5.33;;;14.10;99.80;;;;;;5054557;28;20557;-79
2022/07/05 04:18:43;;;;;;;6.17;5.50;;;14.10;99.90;;;;;;5054516;28;20446;-79
2022/07/05 04:21:11;;;;;;;6.40;5.80;;;14.10;99.90;;;;;;5054806;28;20438;-79
2022/07/05 04:23:39;;;;;;;8.00;6.93;;;14.10;99.90;;;;;;5054824;28;20451;-79
2022/07/05 04:26:08;;;;;;;7.00;5.50;;;14.10;99.90;;;;;;5054821;28;21057;-81
2022/07/05 04:28:41;;;;;;;6.70;6.10;;;14.10;99.90;;;;;;5054355;28;20450;-79
2022/07/05 04:31:13;;;;;;;7.03;6.47;;;14.10;99.90;;;;;;5054423;28;20500;-81
2022/07/05 04:33:47;;;;;;;6.43;5.80;;;14.10;99.90;;;;;;5054302;28;20434;-79
2022/07/05 04:36:20;;;;;;;7.27;6.57;;;14.10;99.90;;;;;;5054318;28;20947;-79
2022/07/05 04:38:52;;;;;;;7.07;6.03;;;14.10;99.90;;;;;;5054086;28;20991;-80
2022/07/05 04:41:22;;;;;;;6.37;5.77;;;14.20;99.90;;;;;;5053975;28;20947;-80
2022/07/05 04:43:50;;;;;;;7.93;6.00;;;14.20;99.90;;;;;;5054961;28;20476;-80
2022/07/05 04:46:19;;;;;;;6.23;5.73;;;14.20;99.90;;;;;;5054441;28;20457;-79
2022/07/05 04:48:52;;;;;;;6.07;5.57;;;14.20;99.90;;;;;;5054768;28;20457;-79
2022/07/05 04:51:20;;;;;;;6.03;5.53;;;14.20;99.90;;;;;;5054511;28;20446;-79
2022/07/05 04:53:49;;;;;;;5.60;5.10;;;14.30;99.90;;;;;;5054540;28;20463;-78
2022/07/05 04:56:18;;;;;;;7.10;6.20;;;14.30;99.90;;;;;;5053654;28;20461;-79
2022/07/05 04:58:46;;;;;;;5.57;5.17;;;14.30;99.90;;;;;;5053758;28;20812;-81
2022/07/05 05:01:15;;;;;;;5.67;4.90;;;14.30;99.90;;;;;;5055115;28;20446;-79
2022/07/05 05:03:43;;;;;;;6.27;5.20;;;14.40;99.90;;;;;;5054898;28;20412;-80
2022/07/05 05:06:16;;;;;;;5.50;5.00;;;14.40;99.90;;;;;;5054788;28;20450;-80
2022/07/05 05:08:44;;;;;;;6.07;5.47;;;14.40;99.90;;;;;;5055123;28;20446;-79
2022/07/05 05:11:13;;;;;;;5.30;4.60;;;14.50;99.90;;;;;;5053865;28;20455;-79
2022/07/05 05:13:45;;;;;;;5.70;4.80;;;14.50;99.90;;;;;;5056433;28;20445;-79
2022/07/05 05:16:13;;;;;;;6.00;5.07;;;14.50;99.90;;;;;;5061464;28;20417;-79
2022/07/05 05:18:42;;;;;;;4.77;4.20;;;14.50;99.90;;;;;;5060794;28;20430;-80
2022/07/05 05:21:12;;;;;;;4.77;4.30;;;14.60;99.90;;;;;;5060684;28;20545;-79
2022/07/05 05:23:40;;;;;;;4.93;4.30;;;14.60;99.90;;;;;;5059056;28;20460;-80
2022/07/05 05:26:08;;;;;;;6.60;4.90;;;14.70;99.90;;;;;;5060385;28;20449;-81
2022/07/05 05:28:38;;;;;;;5.30;4.80;;;14.70;99.90;;;;;;5060519;28;20405;-83
2022/07/05 05:31:07;;;;;;;4.47;4.07;;;14.80;99.90;;;;;;5058628;28;20464;-78
2022/07/05 05:33:35;;;;;;;4.90;4.40;;;14.80;99.90;;;;;;5060110;28;20446;-78
2022/07/05 05:36:04;;;;;;;4.83;4.27;;;14.90;99.90;;;;;;5060348;28;20511;-80
2022/07/05 05:38:34;;;;;;;5.10;4.60;;;15.00;99.90;;;;;;5058042;28;20495;-78
2022/07/05 05:41:02;;;;;;;4.90;4.10;;;15.20;99.90;;;;;;5060282;28;20466;-79
2022/07/05 05:43:30;;;;;;;3.80;3.47;;;15.40;99.90;;;;;;5059454;28;20424;-78
2022/07/05 05:45:59;;;;;;;5.13;4.10;;;15.50;99.90;;;;;;5059021;28;21024;-79
2022/07/05 05:48:27;;;;;;;4.90;3.57;;;15.70;99.90;;;;;;5060419;28;20425;-80
2022/07/05 05:50:56;;;;;;;3.97;3.57;;;16.00;99.90;;;;;;5059294;28;20445;-79
2022/07/05 05:53:25;;;;;;;5.40;3.50;;;16.20;99.90;;;;;;5059400;28;20494;-79
2022/07/05 05:55:59;;;;;;;4.80;3.57;;;16.50;99.90;;;;;;5061089;28;20405;-79
2022/07/05 05:58:27;;;;;;;5.93;3.87;;;16.70;99.90;;;;;;5059768;28;20413;-80
2022/07/05 06:00:56;;;;;;;4.60;3.00;;;17.00;99.90;;;;;;5059736;28;20858;-80
2022/07/05 06:03:26;;;;;;;3.00;2.80;;;17.30;99.90;;;;;;5059112;28;20544;-81
2022/07/05 06:05:55;;;;;;;3.53;3.07;;;17.60;99.90;;;;;;5059154;28;20537;-80
2022/07/05 06:08:23;;;;;;;3.30;2.93;;;17.90;99.90;;;;;;5058915;28;20469;-80
2022/07/05 06:10:52;;;;;;;3.53;3.07;;;18.20;99.70;;;;;;5058837;28;20505;-81
2022/07/05 06:13:31;;;;;;;4.00;2.80;;;18.40;99.50;;;;;;5059650;28;20538;-80
2022/07/05 06:15:59;;;;;;;9.00;3.80;;;18.70;99.40;;;;;;5059752;28;20484;-81
2022/07/05 06:18:28;;;;;;;4.60;2.80;;;19.00;99.20;;;;;;5059945;28;20449;-80
2022/07/05 06:20:56;;;;;;;2.97;2.70;;;19.20;98.90;;;;;;5060207;28;20481;-80
2022/07/05 06:23:24;;;;;;;4.60;2.73;;;19.40;98.60;;;;;;5059115;28;20456;-83
2022/07/05 06:25:53;;;;;;;3.90;2.30;;;19.60;98.30;;;;;;5060356;28;20496;-81
2022/07/05 06:28:21;;;;;;;5.10;2.60;;;19.80;98.00;;;;;;5059193;28;20827;-80
2022/07/05 06:30:52;;;;;;;3.53;3.03;;;20.00;97.70;;;;;;5058883;28;20470;-81
2022/07/05 06:33:21;;;;;;;2.57;2.10;;;20.20;97.40;;;;;;5060818;28;20421;-82
2022/07/05 06:35:49;;;;;;;2.67;2.43;;;20.30;97.20;;;;;;5059728;28;20536;-82
2022/07/05 06:38:17;;;;;;;5.00;2.30;;;20.50;97.20;;;;;;5060596;28;20477;-81
2022/07/05 06:40:45;;;;;;;6.30;2.20;;;20.70;97.10;;;;;;5059075;28;20470;-80
2022/07/05 06:43:15;;;;;;;3.57;2.07;;;20.90;96.80;;;;;;5058802;28;20859;-81
2022/07/05 06:45:51;;;;;;;4.00;2.00;;;21.00;96.40;;;;;;5058016;28;20512;-82
2022/07/05 06:48:19;;;;;;;2.40;2.03;;;21.20;96.10;;;;;;5059542;28;20442;-83
2022/07/05 06:50:48;;;;;;;3.10;1.97;;;21.30;95.80;;;;;;5058599;28;20550;-83
2022/07/05 06:53:16;;;;;;;2.43;1.90;;;21.40;95.70;;;;;;5059008;28;20458;-83
2022/07/05 06:55:45;;;;;;;2.50;1.87;;;21.50;95.40;;;;;;5059689;28;20457;-82
2022/07/05 06:58:22;;;;;;;4.20;2.03;;;21.70;95.30;;;;;;5059566;28;20974;-83
2022/07/05 07:00:53;;;;;;;3.00;1.80;;;21.80;95.00;;;;;;5058898;28;20462;-83
2022/07/05 07:03:41;;;;;;;3.50;2.03;;;21.90;94.80;;;;;;5058035;28;20442;-81
2022/07/05 07:06:29;;;;;;;4.13;1.80;;;22.00;94.50;;;;;;5058611;28;20947;-83
2022/07/05 07:11:44;;;;;;;2.53;2.00;;;22.10;94.30;;;;;;5065359;28;20472;-83
2022/07/05 07:14:12;;;;;;;4.00;2.23;;;22.30;94.10;;;;;;5072540;28;20442;-81
2022/07/05 07:16:42;;;;;;;3.80;1.90;;;22.30;93.80;;;;;;5074351;28;20406;-80
2022/07/05 07:19:11;;;;;;;3.33;1.93;;;22.40;93.60;;;;;;5073474;28;20459;-79
2022/07/05 07:21:42;;;;;;;2.40;1.80;;;22.50;93.50;;;;;;5071315;28;20442;-79
2022/07/05 07:24:11;;;;;;;3.10;2.03;;;22.50;93.00;;;;;;5072962;28;20477;-79
2022/07/05 07:29:26;;;;;;;3.97;2.40;;;22.60;92.90;;;;;;5073517;28;20527;-80
2022/07/05 07:31:55;;;;;;;4.33;1.90;;;22.70;92.90;;;;;;5071892;28;20473;-79
2022/07/05 07:34:24;;;;;;;5.93;1.87;;;22.80;92.80;;;;;;5072661;28;20426;-79
2022/07/05 07:36:53;;;;;;;2.20;1.67;;;22.90;92.50;;;;;;5071953;28;20449;-78
2022/07/05 07:39:22;;;;;;;3.10;1.90;;;22.90;92.30;;;;;;5072185;28;20498;-81
2022/07/05 07:41:50;;;;;;;3.20;1.83;;;23.00;92.20;;;;;;5073686;28;20484;-79
2022/07/05 07:44:18;;;;;;;2.30;1.70;;;23.10;92.10;;;;;;5070317;28;20450;-80
2022/07/05 07:46:47;;;;;;;3.87;1.43;;;23.10;92.00;;;;;;5068417;28;20457;-80
2022/07/05 07:49:17;;;;;;;2.40;1.90;;;23.20;91.70;;;;;;5069072;28;20485;-79
2022/07/05 07:51:45;;;;;;;2.60;2.03;;;23.20;91.20;;;;;;5068042;28;20465;-79
2022/07/05 07:54:14;;;;;;;3.87;1.67;;;23.30;91.20;;;;;;5067244;28;20438;-79
2022/07/05 07:56:42;;;;;;;5.83;2.03;;;23.20;90.90;;;;;;5068279;28;20454;-78
2022/07/05 07:59:11;;;;;;;2.20;1.77;;;23.00;90.60;;;;;;5068564;28;20458;-79
2022/07/05 08:01:42;;;;;;;6.13;1.53;;;23.00;90.70;;;;;;5068839;28;20431;-78
2022/07/05 08:04:13;;;;;;;3.50;1.70;;;23.00;90.50;;;;;;5063066;28;20458;-79
2022/07/05 08:06:45;;;;;;;2.17;1.43;;;23.00;90.30;;;;;;5066818;28;20460;-79
2022/07/05 08:09:14;;;;;;;1.53;1.13;;;23.10;90.30;;;;;;5057729;28;20481;-76
2022/07/05 08:11:46;;;;;;;3.97;1.50;;;23.20;90.20;;;;;;5054630;28;20462;-78
2022/07/05 08:14:19;;;;;;;2.87;1.83;;;23.20;90.00;;;;;;5054342;28;20966;-77
2022/07/05 08:16:48;;;;;;;2.50;1.80;;;23.30;90.20;;;;;;5055999;28;20868;-77
2022/07/05 08:22:08;;;;;;;2.00;1.20;;;23.30;89.10;;;;;;5055437;28;20433;-78
2022/07/05 08:24:39;;;;;;;4.10;1.37;;;23.20;88.50;;;;;;5054156;28;20434;-77
2022/07/05 08:27:07;;;;;;;2.70;1.40;;;23.10;88.30;;;;;;5055042;28;20869;-77
2022/07/05 08:29:35;;;;;;;1.40;1.20;;;23.00;88.10;;;;;;5053864;28;20826;-76
2022/07/05 08:32:05;;;;;;;1.90;1.20;;;22.90;87.60;;;;;;5053966;28;20470;-77
2022/07/05 08:34:33;;;;;;;4.07;1.30;;;22.90;86.80;;;;;;5053865;28;20438;-76
2022/07/05 08:37:01;;;;;;;2.90;1.30;;;22.70;86.30;;;;;;5054444;28;20466;-76
2022/07/05 08:39:31;;;;;;;1.77;1.20;;;22.50;86.50;;;;;;5054265;28;20465;-77
2022/07/05 08:42:00;;;;;;;3.63;1.30;;;22.40;86.80;;;;;;5054702;28;20542;-77
2022/07/05 08:44:32;;;;;;;2.40;1.60;;;22.60;86.80;;;;;;5054126;28;20834;-77
2022/07/05 08:47:03;;;;;;;2.53;1.30;;;22.70;86.80;;;;;;5053710;28;20430;-76
2022/07/05 08:49:34;;;;;;;3.00;1.20;;;22.90;86.40;;;;;;5052825;28;20458;-77
2022/07/05 08:52:04;;;;;;;2.00;1.17;;;23.00;85.60;;;;;;5054385;28;20896;-75
2022/07/05 08:54:34;;;;;;;2.77;1.50;;;23.00;85.30;;;;;;5053482;28;20791;-77
2022/07/05 08:57:02;;;;;;;3.33;1.70;;;23.00;85.60;;;;;;5054014;28;20438;-78
2022/07/05 08:59:41;;;;;;;1.57;0.80;;;22.90;85.50;;;;;;5052295;28;20472;-77
2022/07/05 09:02:14;;;;;;;2.47;1.00;;;22.90;85.10;;;;;;5053714;28;20488;-77
2022/07/05 09:04:46;;;;;;;1.60;1.00;;;22.90;84.50;;;;;;5053766;28;20414;-77
2022/07/05 09:07:18;;;;;;;3.07;1.10;;;23.00;84.20;;;;;;5052700;28;20533;-77
2022/07/05 09:09:51;;;;;;;1.77;1.30;;;23.20;84.00;;;;;;5053725;28;20457;-77
2022/07/05 09:12:20;;;;;;;1.97;1.13;;;23.30;83.50;;;;;;5054101;28;20454;-77
2022/07/05 09:14:54;;;;;;;3.40;1.33;;;23.40;83.70;;;;;;5053930;28;20453;-77
2022/07/05 09:17:23;;;;;;;2.50;1.20;;;23.40;83.60;;;;;;5054100;28;20513;-76
2022/07/05 09:20:09;;;;;;;1.53;0.87;;;23.50;83.70;;;;;;5052546;28;20970;-79
2022/07/05 09:22:45;;;;;;;2.43;1.20;;;23.50;83.10;;;;;;5053554;28;20939;-77
2022/07/05 09:25:20;;;;;;;2.60;1.33;;;23.40;82.80;;;;;;5053545;28;20823;-75
2022/07/05 09:27:51;;;;;;;2.53;1.17;;;23.30;82.50;;;;;;5053558;28;20425;-78
2022/07/05 09:30:28;;;;;;;3.30;1.20;;;23.30;82.80;;;;;;5052046;28;20560;-79
2022/07/05 09:33:07;;;;;;;3.00;1.23;;;23.40;82.80;;;;;;5054858;28;20454;-77
2022/07/05 09:35:37;;;;;;;4.60;1.20;;;23.40;82.40;;;;;;5056153;28;20434;-77
2022/07/05 09:38:06;;;;;;;2.40;1.20;;;23.30;82.00;;;;;;5053491;28;20454;-76
2022/07/05 09:40:47;;;;;;;2.07;1.20;;;23.30;82.10;;;;;;5053370;28;20530;-76
2022/07/05 09:43:17;;;;;;;2.50;1.30;;;23.30;82.70;;;;;;5053537;28;20962;-76
2022/07/05 09:45:55;;;;;;;2.53;0.90;;;23.20;81.90;;;;;;5053287;28;20935;-76
2022/07/05 09:48:24;;;;;;;2.83;1.00;;;23.30;82.00;;;;;;5053848;28;20414;-77
2022/07/05 09:51:09;;;;;;;1.93;1.23;;;23.30;81.80;;;;;;5053673;28;20553;-77
2022/07/05 09:53:59;;;;;;;3.17;1.77;;;23.30;82.70;;;;;;5053235;28;20446;-77
2022/07/05 09:56:43;;;;;;;2.40;1.10;;;23.30;81.90;;;;;;5053713;28;20977;-76
2022/07/05 09:59:17;;;;;;;3.20;1.70;;;23.20;81.80;;;;;;5051871;28;20892;-78
2022/07/05 10:01:46;;;;;;;3.03;1.20;;;23.20;81.60;;;;;;5056233;28;20513;-78
2022/07/05 10:04:14;;;;;;;3.70;1.30;;;23.20;81.60;;;;;;5056534;28;20830;-77
2022/07/05 10:06:43;;;;;;;2.40;1.20;;;23.10;81.40;;;;;;5056451;28;20442;-76
2022/07/05 10:09:14;;;;;;;2.90;1.30;;;23.10;81.20;;;;;;5056128;28;20462;-77
2022/07/05 10:11:45;;;;;;;3.53;1.50;;;23.10;81.10;;;;;;5056237;28;20891;-76
2022/07/05 10:14:18;;;;;;;5.37;1.73;;;23.10;81.30;;;;;;5055016;28;20457;-75
2022/07/05 10:17:02;;;;;;;4.90;1.33;;;23.20;81.30;;;;;;5056516;28;20422;-75
2022/07/05 10:19:36;;;;;;;1.70;1.10;;;23.10;81.00;;;;;;5055078;28;20541;-76
2022/07/05 10:22:06;;;;;;;2.80;1.20;;;23.10;81.10;;;;;;5056437;28;20875;-76
2022/07/05 10:24:46;;;;;;;1.80;1.20;;;23.20;81.20;;;;;;5054869;28;20441;-76
2022/07/05 10:27:18;;;;;;;2.63;1.30;;;23.10;81.70;;;;;;5054838;28;20541;-76
2022/07/05 10:29:49;;;;;;;2.17;1.50;;;23.00;81.10;;;;;;5056121;28;20454;-76
2022/07/05 10:32:18;;;;;;;3.87;1.30;;;23.00;81.20;;;;;;5054722;28;20485;-75
2022/07/05 10:34:49;;;;;;;3.80;1.80;;;23.00;81.30;;;;;;5054727;28;20915;-76
2022/07/05 10:37:25;;;;;;;2.80;1.30;;;22.90;80.90;;;;;;5056217;28;20895;-76
2022/07/05 10:39:54;;;;;;;2.83;1.30;;;22.90;80.70;;;;;;5055972;28;20456;-76
2022/07/05 10:42:26;;;;;;;2.70;1.20;;;22.90;80.70;;;;;;5054761;28;20525;-76
2022/07/05 10:44:54;;;;;;;3.97;1.00;;;22.90;80.60;;;;;;5056102;28;20422;-76
2022/07/05 10:47:22;;;;;;;3.73;1.20;;;22.90;80.50;;;;;;5055863;28;20438;-76
2022/07/05 10:50:02;;;;;;;3.00;1.33;;;22.80;80.50;;;;;;5054342;28;20572;-77
2022/07/05 10:52:30;;;;;;;1.47;1.07;;;22.80;80.70;;;;;;5056313;28;20457;-76
2022/07/05 10:55:21;;;;;;;2.33;1.30;;;22.80;80.70;;;;;;5055880;28;20437;-77
2022/07/05 10:58:24;;;;;;;3.27;1.17;;;22.80;80.50;;;;;;5056015;28;20434;-76
2022/07/05 11:01:38;;;;;;;2.10;1.10;;;22.80;80.50;;;;;;5054246;28;20505;-76
2022/07/05 11:04:35;;;;;;;3.93;1.23;;;22.90;80.50;;;;;;5055732;28;20774;-76
2022/07/05 11:07:04;;;;;;;2.17;1.33;;;22.90;80.60;;;;;;5054395;28;20438;-76
2022/07/05 11:09:32;;;;;;;1.80;1.10;;;23.00;80.80;;;;;;5054035;28;20464;-76
2022/07/05 11:12:09;;;;;;;5.60;1.77;;;23.10;80.80;;;;;;5054291;28;20488;-77
2022/07/05 11:15:08;;;;;;;3.00;1.70;;;23.10;80.60;;;;;;5055336;28;20891;-76
2022/07/05 11:17:36;;;;;;;2.07;1.03;;;23.20;80.50;;;;;;5055382;28;20510;-76
2022/07/05 11:20:30;;;;;;;1.90;1.47;;;23.10;80.70;;;;;;5053948;28;20553;-76
2022/07/05 11:23:07;;;;;;;3.97;1.43;;;23.10;80.80;;;;;;5053787;28;20438;-76
2022/07/05 11:25:41;;;;;;;1.97;1.10;;;23.10;80.80;;;;;;5055263;28;20422;-75
2022/07/05 11:28:16;;;;;;;3.20;1.80;;;23.10;81.50;;;;;;5055205;28;20422;-76
2022/07/05 11:30:54;;;;;;;2.57;1.43;;;23.10;80.90;;;;;;5055030;28;20457;-76
2022/07/05 11:33:37;;;;;;;2.50;1.27;;;23.10;80.70;;;;;;5054790;28;20454;-75
2022/07/05 11:36:22;;;;;;;2.77;1.20;;;23.00;80.50;;;;;;5054791;28;20446;-75
2022/07/05 11:39:15;;;;;;;2.63;1.20;;;23.00;80.70;;;;;;5055034;28;20418;-76
2022/07/05 11:41:45;;;;;;;2.20;1.40;;;23.00;81.10;;;;;;5054985;28;20453;-76
2022/07/05 11:44:14;;;;;;;2.57;1.00;;;23.10;80.90;;;;;;5054731;28;20434;-78
2022/07/05 11:46:46;;;;;;;2.90;1.43;;;23.10;80.90;;;;;;5054810;28;20418;-76
2022/07/05 11:49:21;;;;;;;5.83;1.10;;;23.20;80.60;;;;;;5054745;28;20486;-76
2022/07/05 11:51:59;;;;;;;3.60;1.37;;;23.10;80.20;;;;;;5054690;28;20476;-76
2022/07/05 11:54:30;;;;;;;2.50;1.20;;;23.10;80.20;;;;;;5053144;28;20476;-76
2022/07/05 11:56:59;;;;;;;3.00;1.30;;;23.00;80.20;;;;;;5054652;28;20473;-75
2022/07/05 11:59:28;;;;;;;3.40;1.23;;;23.10;80.40;;;;;;5054484;28;20501;-76
2022/07/05 12:01:57;;;;;;;2.90;1.33;;;23.10;80.50;;;;;;5052996;28;20521;-76
2022/07/05 12:04:28;;;;;;;1.50;1.10;;;23.10;80.40;;;;;;5054285;28;20445;-76
2022/07/05 12:06:58;;;;;;;3.10;1.30;;;23.10;80.10;;;;;;5054333;28;20426;-75
2022/07/05 12:09:28;;;;;;;3.47;1.30;;;23.10;79.60;;;;;;5052722;28;21001;-75
2022/07/05 12:14:50;;;;;;;1.70;1.10;;;23.10;79.20;;;;;;5054340;28;20628;-76
2022/07/05 12:17:21;;;;;;;2.13;1.43;;;23.10;79.10;;;;;;5054192;28;20837;-76
2022/07/05 12:19:54;;;;;;;4.73;1.43;;;23.10;78.40;;;;;;5054356;28;20935;-75
2022/07/05 12:22:33;;;;;;;2.27;1.50;;;23.00;78.30;;;;;;5054533;28;20483;-76
2022/07/05 12:25:04;;;;;;;3.13;1.33;;;23.00;78.30;;;;;;5055207;28;20926;-76
2022/07/05 12:27:34;;;;;;;6.33;2.00;;;23.00;78.30;;;;;;5052800;28;20442;-76
2022/07/05 12:30:05;;;;;;;2.47;1.50;;;22.90;78.30;;;;;;5058045;28;20480;-79
2022/07/05 12:32:36;;;;;;;3.33;1.40;;;22.90;78.40;;;;;;5059580;28;20453;-79
2022/07/05 12:35:05;;;;;;;2.53;1.30;;;22.90;78.60;;;;;;5057690;28;20548;-80
2022/07/05 12:37:34;;;;;;;4.70;1.40;;;23.00;78.80;;;;;;5058309;28;20430;-79
2022/07/05 12:40:06;;;;;;;3.80;1.30;;;23.00;78.70;;;;;;5057605;28;20990;-81
2022/07/05 12:42:35;;;;;;;2.40;1.60;;;23.00;78.80;;;;;;5058159;28;20449;-80
2022/07/05 12:45:14;;;;;;;2.23;1.17;;;23.00;78.80;;;;;;5056984;28;20470;-79
2022/07/05 12:47:55;;;;;;;2.70;1.20;;;23.00;79.00;;;;;;5057698;28;20410;-79
2022/07/05 12:50:25;;;;;;;3.33;2.80;;;23.00;79.00;;;;;;5055554;28;20497;-79
2022/07/05 12:58:01;;;;;;;2.27;1.20;;;23.10;79.10;;;;;;5056655;28;20450;-78
2022/07/05 12:58:49;;;;;;;3.60;1.90;;;23.10;78.80;;;;;;5056878;28;20785;-78
2022/07/05 13:01:22;;;;;;;1.80;1.40;;;23.10;78.90;;;;;;5056085;28;20422;-78
2022/07/05 13:04:01;;;;;;;5.03;1.70;;;23.00;78.80;;;;;;5056571;28;20429;-78
2022/07/05 13:06:44;;;;;;;1.83;1.37;;;23.00;79.00;;;;;;5056525;28;20472;-78
2022/07/05 13:09:13;;;;;;;5.67;1.40;;;23.00;79.10;;;;;;5055508;28;20484;-80
2022/07/05 13:11:43;;;;;;;3.17;1.93;;;23.10;79.30;;;;;;5055898;28;20536;-79
2022/07/05 13:14:11;;;;;;;2.17;1.20;;;23.10;79.30;;;;;;5056312;28;20964;-80
2022/07/05 13:16:39;;;;;;;4.73;1.60;;;23.30;79.80;;;;;;5057738;28;20509;-81
2022/07/05 13:19:11;;;;;;;3.43;1.30;;;23.40;80.00;;;;;;5056370;28;20472;-79
2022/07/05 13:21:40;;;;;;;2.80;1.43;;;23.40;79.50;;;;;;5056546;28;20962;-81
2022/07/05 13:24:08;;;;;;;2.20;1.20;;;23.30;79.10;;;;;;5057519;28;20442;-79